sensor_id;sensor_type;location;lat;lon;timestamp;P1;durP1;ratioP1;P2;durP2;ratioP2
846;SDS011;410;48.954;9.474;2023-09-12T00:00:34;15.10;;;8.60;;
846;SDS011;410;48.954;9.474;2023-09-12T00:02:36;11.53;;;9.57;;
846;SDS011;410;48.954;9.474;2023-09-12T00:04:40;13.33;;;9.50;;
846;SDS011;410;48.954;9.474;2023-09-12T00:06:43;11.33;;;9.67;;
846;SDS011;410;48.954;9.474;2023-09-12T00:08:48;13.00;;;10.10;;
846;SDS011;410;48.954;9.474;2023-09-12T00:11:00;13.57;;;9.80;;
846;SDS011;410;48.954;9.474;2023-09-12T00:13:04;18.13;;;10.10;;
846;SDS011;410;48.954;9.474;2023-09-12T00:15:08;16.87;;;10.13;;
846;SDS011;410;48.954;9.474;2023-09-12T00:17:10;11.80;;;10.10;;
846;SDS011;410;48.954;9.474;2023-09-12T00:19:13;15.03;;;9.57;;
846;SDS011;410;48.954;9.474;2023-09-12T00:21:17;14.80;;;9.73;;
846;SDS011;410;48.954;9.474;2023-09-12T00:23:20;11.27;;;9.70;;
846;SDS011;410;48.954;9.474;2023-09-12T00:25:26;11.70;;;9.77;;
846;SDS011;410;48.954;9.474;2023-09-12T00:27:28;10.30;;;9.30;;
846;SDS011;410;48.954;9.474;2023-09-12T00:29:32;17.83;;;10.37;;
846;SDS011;410;48.954;9.474;2023-09-12T00:31:35;16.83;;;10.03;;
846;SDS011;410;48.954;9.474;2023-09-12T00:33:38;14.70;;;9.17;;
846;SDS011;410;48.954;9.474;2023-09-12T00:35:42;14.80;;;9.40;;
846;SDS011;410;48.954;9.474;2023-09-12T00:37:45;16.13;;;9.53;;
846;SDS011;410;48.954;9.474;2023-09-12T00:39:48;14.90;;;9.30;;
846;SDS011;410;48.954;9.474;2023-09-12T00:41:53;13.20;;;9.67;;
846;SDS011;410;48.954;9.474;2023-09-12T00:43:56;17.73;;;10.37;;
846;SDS011;410;48.954;9.474;2023-09-12T00:46:01;12.13;;;9.57;;
846;SDS011;410;48.954;9.474;2023-09-12T00:48:04;11.20;;;9.10;;
846;SDS011;410;48.954;9.474;2023-09-12T00:50:08;14.33;;;9.20;;
846;SDS011;410;48.954;9.474;2023-09-12T00:52:12;14.13;;;9.50;;
846;SDS011;410;48.954;9.474;2023-09-12T00:54:16;14.00;;;10.80;;
846;SDS011;410;48.954;9.474;2023-09-12T00:56:19;13.07;;;9.53;;
846;SDS011;410;48.954;9.474;2023-09-12T00:58:24;13.00;;;9.33;;
846;SDS011;410;48.954;9.474;2023-09-12T01:00:28;12.50;;;8.83;;
846;SDS011;410;48.954;9.474;2023-09-12T01:02:31;13.57;;;9.50;;
846;SDS011;410;48.954;9.474;2023-09-12T01:04:35;13.73;;;9.67;;
846;SDS011;410;48.954;9.474;2023-09-12T01:06:39;16.33;;;10.00;;
846;SDS011;410;48.954;9.474;2023-09-12T01:08:42;14.03;;;9.60;;
846;SDS011;410;48.954;9.474;2023-09-12T01:10:46;15.67;;;9.73;;
846;SDS011;410;48.954;9.474;2023-09-12T01:12:50;11.63;;;9.87;;
846;SDS011;410;48.954;9.474;2023-09-12T01:14:56;13.60;;;9.93;;
846;SDS011;410;48.954;9.474;2023-09-12T01:16:58;14.13;;;10.07;;
846;SDS011;410;48.954;9.474;2023-09-12T01:19:02;11.73;;;10.53;;
846;SDS011;410;48.954;9.474;2023-09-12T01:23:44;15.63;;;10.30;;
846;SDS011;410;48.954;9.474;2023-09-12T01:25:57;13.00;;;9.70;;
846;SDS011;410;48.954;9.474;2023-09-12T01:28:07;14.73;;;9.70;;
846;SDS011;410;48.954;9.474;2023-09-12T01:30:12;15.63;;;9.40;;
846;SDS011;410;48.954;9.474;2023-09-12T01:32:16;14.40;;;10.13;;
846;SDS011;410;48.954;9.474;2023-09-12T01:34:21;14.00;;;10.90;;
846;SDS011;410;48.954;9.474;2023-09-12T01:36:24;14.03;;;10.20;;
846;SDS011;410;48.954;9.474;2023-09-12T01:38:27;12.90;;;10.03;;
846;SDS011;410;48.954;9.474;2023-09-12T01:40:33;18.90;;;10.10;;
846;SDS011;410;48.954;9.474;2023-09-12T01:42:40;15.30;;;10.07;;
846;SDS011;410;48.954;9.474;2023-09-12T01:44:49;15.73;;;9.47;;
846;SDS011;410;48.954;9.474;2023-09-12T01:46:54;11.10;;;9.53;;
846;SDS011;410;48.954;9.474;2023-09-12T01:48:57;11.90;;;9.53;;
846;SDS011;410;48.954;9.474;2023-09-12T01:51:00;12.40;;;10.03;;
846;SDS011;410;48.954;9.474;2023-09-12T01:53:05;15.70;;;9.83;;
846;SDS011;410;48.954;9.474;2023-09-12T01:55:08;15.70;;;9.40;;
846;SDS011;410;48.954;9.474;2023-09-12T01:57:12;12.40;;;10.10;;
846;SDS011;410;48.954;9.474;2023-09-12T01:59:15;11.63;;;9.70;;
846;SDS011;410;48.954;9.474;2023-09-12T02:15:05;16.33;;;10.57;;
846;SDS011;410;48.954;9.474;2023-09-12T02:17:09;15.90;;;9.40;;
846;SDS011;410;48.954;9.474;2023-09-12T02:19:14;12.20;;;10.10;;
846;SDS011;410;48.954;9.474;2023-09-12T02:21:17;11.83;;;9.83;;
846;SDS011;410;48.954;9.474;2023-09-12T02:23:21;11.93;;;9.13;;
846;SDS011;410;48.954;9.474;2023-09-12T02:25:24;16.37;;;9.70;;
846;SDS011;410;48.954;9.474;2023-09-12T02:27:27;12.93;;;10.30;;
846;SDS011;410;48.954;9.474;2023-09-12T02:29:31;12.40;;;10.37;;
846;SDS011;410;48.954;9.474;2023-09-12T02:31:36;15.17;;;9.93;;
846;SDS011;410;48.954;9.474;2023-09-12T02:33:40;14.47;;;10.10;;
846;SDS011;410;48.954;9.474;2023-09-12T02:35:43;17.43;;;9.73;;
846;SDS011;410;48.954;9.474;2023-09-12T02:37:46;15.17;;;10.30;;
846;SDS011;410;48.954;9.474;2023-09-12T02:39:50;12.87;;;9.33;;
846;SDS011;410;48.954;9.474;2023-09-12T02:41:53;14.73;;;9.70;;
846;SDS011;410;48.954;9.474;2023-09-12T02:43:56;15.43;;;9.90;;
846;SDS011;410;48.954;9.474;2023-09-12T02:46:00;15.83;;;10.10;;
846;SDS011;410;48.954;9.474;2023-09-12T02:48:05;13.70;;;10.20;;
846;SDS011;410;48.954;9.474;2023-09-12T02:50:09;13.40;;;9.77;;
846;SDS011;410;48.954;9.474;2023-09-12T02:52:11;12.43;;;9.80;;
846;SDS011;410;48.954;9.474;2023-09-12T02:54:14;14.47;;;10.23;;
846;SDS011;410;48.954;9.474;2023-09-12T02:56:16;12.07;;;10.10;;
846;SDS011;410;48.954;9.474;2023-09-12T02:58:20;11.53;;;10.33;;
846;SDS011;410;48.954;9.474;2023-09-12T03:00:23;16.50;;;11.30;;
846;SDS011;410;48.954;9.474;2023-09-12T03:02:26;13.87;;;10.80;;
846;SDS011;410;48.954;9.474;2023-09-12T03:04:32;16.70;;;10.40;;
846;SDS011;410;48.954;9.474;2023-09-12T03:06:37;12.87;;;9.73;;
846;SDS011;410;48.954;9.474;2023-09-12T03:08:41;15.83;;;11.03;;
846;SDS011;410;48.954;9.474;2023-09-12T03:10:44;14.57;;;10.37;;
846;SDS011;410;48.954;9.474;2023-09-12T03:12:47;16.30;;;11.40;;
846;SDS011;410;48.954;9.474;2023-09-12T03:14:49;16.30;;;11.70;;
846;SDS011;410;48.954;9.474;2023-09-12T03:16:52;13.60;;;10.00;;
846;SDS011;410;48.954;9.474;2023-09-12T03:18:56;13.13;;;10.40;;
846;SDS011;410;48.954;9.474;2023-09-12T03:21:01;16.20;;;10.63;;
846;SDS011;410;48.954;9.474;2023-09-12T03:23:05;12.70;;;9.50;;
846;SDS011;410;48.954;9.474;2023-09-12T03:25:08;13.10;;;10.30;;
846;SDS011;410;48.954;9.474;2023-09-12T03:27:11;11.93;;;9.93;;
846;SDS011;410;48.954;9.474;2023-09-12T03:29:13;12.83;;;10.13;;
846;SDS011;410;48.954;9.474;2023-09-12T03:31:17;14.73;;;10.87;;
846;SDS011;410;48.954;9.474;2023-09-12T03:33:21;15.60;;;10.43;;
846;SDS011;410;48.954;9.474;2023-09-12T03:35:24;14.20;;;10.73;;
846;SDS011;410;48.954;9.474;2023-09-12T03:37:28;16.83;;;11.10;;
846;SDS011;410;48.954;9.474;2023-09-12T03:39:31;15.23;;;9.27;;
846;SDS011;410;48.954;9.474;2023-09-12T03:41:34;13.10;;;9.77;;
846;SDS011;410;48.954;9.474;2023-09-12T03:43:38;13.67;;;10.60;;
846;SDS011;410;48.954;9.474;2023-09-12T03:45:41;13.30;;;10.10;;
846;SDS011;410;48.954;9.474;2023-09-12T03:47:44;14.80;;;9.47;;
846;SDS011;410;48.954;9.474;2023-09-12T03:49:50;12.83;;;10.27;;
846;SDS011;410;48.954;9.474;2023-09-12T03:51:54;13.60;;;10.20;;
846;SDS011;410;48.954;9.474;2023-09-12T03:53:59;12.97;;;10.20;;
846;SDS011;410;48.954;9.474;2023-09-12T03:56:01;15.00;;;9.87;;
846;SDS011;410;48.954;9.474;2023-09-12T03:58:04;12.70;;;9.77;;
846;SDS011;410;48.954;9.474;2023-09-12T04:00:08;15.50;;;10.90;;
846;SDS011;410;48.954;9.474;2023-09-12T04:02:21;16.00;;;10.67;;
846;SDS011;410;48.954;9.474;2023-09-12T04:04:24;13.50;;;10.80;;
846;SDS011;410;48.954;9.474;2023-09-12T04:06:27;16.30;;;11.00;;
846;SDS011;410;48.954;9.474;2023-09-12T04:08:30;18.93;;;9.90;;
846;SDS011;410;48.954;9.474;2023-09-12T04:10:36;15.00;;;10.80;;
846;SDS011;410;48.954;9.474;2023-09-12T04:12:38;14.57;;;10.90;;
846;SDS011;410;48.954;9.474;2023-09-12T04:14:42;12.40;;;10.27;;
846;SDS011;410;48.954;9.474;2023-09-12T04:16:45;17.60;;;12.93;;
846;SDS011;410;48.954;9.474;2023-09-12T04:18:47;16.83;;;11.37;;
846;SDS011;410;48.954;9.474;2023-09-12T04:20:51;15.43;;;10.20;;
846;SDS011;410;48.954;9.474;2023-09-12T04:22:54;14.70;;;11.27;;
846;SDS011;410;48.954;9.474;2023-09-12T04:24:57;15.83;;;11.00;;
846;SDS011;410;48.954;9.474;2023-09-12T04:27:02;14.77;;;11.33;;
846;SDS011;410;48.954;9.474;2023-09-12T04:29:07;15.00;;;10.50;;
846;SDS011;410;48.954;9.474;2023-09-12T04:31:10;16.00;;;11.00;;
846;SDS011;410;48.954;9.474;2023-09-12T04:33:13;14.83;;;11.60;;
846;SDS011;410;48.954;9.474;2023-09-12T04:35:17;16.80;;;10.30;;
846;SDS011;410;48.954;9.474;2023-09-12T04:37:21;18.67;;;11.50;;
846;SDS011;410;48.954;9.474;2023-09-12T04:39:23;14.37;;;11.10;;
846;SDS011;410;48.954;9.474;2023-09-12T04:41:27;14.77;;;10.80;;
846;SDS011;410;48.954;9.474;2023-09-12T04:43:31;17.20;;;11.10;;
846;SDS011;410;48.954;9.474;2023-09-12T04:45:35;12.40;;;10.67;;
846;SDS011;410;48.954;9.474;2023-09-12T04:47:38;16.47;;;10.43;;
846;SDS011;410;48.954;9.474;2023-09-12T04:49:43;13.60;;;10.63;;
846;SDS011;410;48.954;9.474;2023-09-12T04:51:46;11.87;;;10.20;;
846;SDS011;410;48.954;9.474;2023-09-12T04:53:49;13.50;;;10.93;;
846;SDS011;410;48.954;9.474;2023-09-12T04:55:54;15.57;;;11.60;;
846;SDS011;410;48.954;9.474;2023-09-12T04:57:57;15.20;;;12.07;;
846;SDS011;410;48.954;9.474;2023-09-12T05:00:03;15.27;;;11.60;;
846;SDS011;410;48.954;9.474;2023-09-12T05:02:07;16.27;;;10.80;;
846;SDS011;410;48.954;9.474;2023-09-12T05:04:11;14.00;;;11.80;;
846;SDS011;410;48.954;9.474;2023-09-12T05:06:14;16.23;;;11.03;;
846;SDS011;410;48.954;9.474;2023-09-12T05:08:17;16.90;;;11.10;;
846;SDS011;410;48.954;9.474;2023-09-12T05:10:21;14.30;;;10.70;;
846;SDS011;410;48.954;9.474;2023-09-12T05:12:24;14.43;;;11.63;;
846;SDS011;410;48.954;9.474;2023-09-12T05:14:28;16.40;;;11.33;;
846;SDS011;410;48.954;9.474;2023-09-12T05:16:32;16.00;;;12.20;;
846;SDS011;410;48.954;9.474;2023-09-12T05:18:36;14.53;;;11.13;;
846;SDS011;410;48.954;9.474;2023-09-12T05:20:39;18.57;;;11.40;;
846;SDS011;410;48.954;9.474;2023-09-12T05:22:43;15.03;;;11.40;;
846;SDS011;410;48.954;9.474;2023-09-12T05:24:46;14.03;;;12.03;;
846;SDS011;410;48.954;9.474;2023-09-12T05:26:49;17.30;;;11.20;;
846;SDS011;410;48.954;9.474;2023-09-12T05:28:53;17.43;;;11.90;;
846;SDS011;410;48.954;9.474;2023-09-12T05:30:56;16.57;;;11.30;;
846;SDS011;410;48.954;9.474;2023-09-12T05:33:01;19.63;;;12.50;;
846;SDS011;410;48.954;9.474;2023-09-12T05:35:04;15.53;;;11.43;;
846;SDS011;410;48.954;9.474;2023-09-12T05:37:23;16.83;;;10.43;;
846;SDS011;410;48.954;9.474;2023-09-12T05:39:26;16.43;;;10.87;;
846;SDS011;410;48.954;9.474;2023-09-12T05:41:29;13.33;;;10.93;;
846;SDS011;410;48.954;9.474;2023-09-12T05:43:32;17.60;;;11.23;;
846;SDS011;410;48.954;9.474;2023-09-12T05:45:36;15.00;;;10.63;;
846;SDS011;410;48.954;9.474;2023-09-12T05:47:39;19.17;;;11.20;;
846;SDS011;410;48.954;9.474;2023-09-12T05:49:44;19.43;;;12.50;;
846;SDS011;410;48.954;9.474;2023-09-12T05:51:47;11.83;;;9.87;;
846;SDS011;410;48.954;9.474;2023-09-12T05:53:50;15.67;;;11.67;;
846;SDS011;410;48.954;9.474;2023-09-12T05:55:54;14.60;;;9.93;;
846;SDS011;410;48.954;9.474;2023-09-12T05:57:58;19.93;;;11.13;;
846;SDS011;410;48.954;9.474;2023-09-12T06:00:02;15.10;;;11.40;;
846;SDS011;410;48.954;9.474;2023-09-12T06:02:15;19.10;;;10.50;;
846;SDS011;410;48.954;9.474;2023-09-12T06:04:19;14.30;;;11.83;;
846;SDS011;410;48.954;9.474;2023-09-12T06:06:24;17.63;;;11.50;;
846;SDS011;410;48.954;9.474;2023-09-12T06:08:27;14.87;;;11.07;;
846;SDS011;410;48.954;9.474;2023-09-12T06:10:30;19.80;;;10.90;;
846;SDS011;410;48.954;9.474;2023-09-12T06:12:33;14.00;;;11.20;;
846;SDS011;410;48.954;9.474;2023-09-12T06:14:38;17.00;;;11.60;;
846;SDS011;410;48.954;9.474;2023-09-12T06:16:41;17.47;;;10.50;;
846;SDS011;410;48.954;9.474;2023-09-12T06:18:44;15.87;;;10.90;;
846;SDS011;410;48.954;9.474;2023-09-12T06:20:47;12.43;;;10.67;;
846;SDS011;410;48.954;9.474;2023-09-12T06:22:53;12.73;;;10.50;;
846;SDS011;410;48.954;9.474;2023-09-12T06:24:56;19.80;;;11.03;;
846;SDS011;410;48.954;9.474;2023-09-12T06:26:58;16.53;;;11.13;;
846;SDS011;410;48.954;9.474;2023-09-12T06:29:01;18.50;;;11.60;;
846;SDS011;410;48.954;9.474;2023-09-12T06:31:07;15.63;;;10.70;;
846;SDS011;410;48.954;9.474;2023-09-12T06:33:11;11.87;;;10.57;;
846;SDS011;410;48.954;9.474;2023-09-12T06:35:14;15.00;;;10.97;;
846;SDS011;410;48.954;9.474;2023-09-12T06:37:17;17.10;;;11.20;;
846;SDS011;410;48.954;9.474;2023-09-12T06:39:21;16.10;;;11.87;;
846;SDS011;410;48.954;9.474;2023-09-12T06:41:26;13.53;;;11.13;;
846;SDS011;410;48.954;9.474;2023-09-12T06:43:30;15.83;;;12.07;;
846;SDS011;410;48.954;9.474;2023-09-12T06:45:33;15.57;;;11.97;;
846;SDS011;410;48.954;9.474;2023-09-12T06:47:39;14.50;;;10.37;;
846;SDS011;410;48.954;9.474;2023-09-12T06:49:42;16.33;;;11.80;;
846;SDS011;410;48.954;9.474;2023-09-12T06:51:50;17.47;;;11.00;;
846;SDS011;410;48.954;9.474;2023-09-12T06:53:53;17.13;;;10.87;;
846;SDS011;410;48.954;9.474;2023-09-12T06:55:58;13.77;;;10.50;;
846;SDS011;410;48.954;9.474;2023-09-12T06:58:01;14.37;;;10.83;;
846;SDS011;410;48.954;9.474;2023-09-12T07:00:05;14.90;;;10.10;;
846;SDS011;410;48.954;9.474;2023-09-12T07:02:10;15.40;;;10.87;;
846;SDS011;410;48.954;9.474;2023-09-12T07:04:14;13.47;;;11.20;;
846;SDS011;410;48.954;9.474;2023-09-12T07:06:18;16.13;;;10.87;;
846;SDS011;410;48.954;9.474;2023-09-12T07:08:21;22.83;;;10.50;;
846;SDS011;410;48.954;9.474;2023-09-12T07:10:24;16.20;;;11.17;;
846;SDS011;410;48.954;9.474;2023-09-12T07:12:29;16.80;;;11.13;;
846;SDS011;410;48.954;9.474;2023-09-12T07:14:34;14.90;;;10.60;;
846;SDS011;410;48.954;9.474;2023-09-12T07:16:39;15.80;;;11.40;;
846;SDS011;410;48.954;9.474;2023-09-12T07:18:42;21.23;;;13.63;;
846;SDS011;410;48.954;9.474;2023-09-12T07:20:46;15.87;;;10.93;;
846;SDS011;410;48.954;9.474;2023-09-12T07:22:49;15.77;;;10.87;;
846;SDS011;410;48.954;9.474;2023-09-12T07:24:52;21.00;;;10.47;;
846;SDS011;410;48.954;9.474;2023-09-12T07:26:56;15.30;;;10.20;;
846;SDS011;410;48.954;9.474;2023-09-12T07:29:01;14.97;;;11.00;;
846;SDS011;410;48.954;9.474;2023-09-12T07:31:07;19.93;;;10.17;;
846;SDS011;410;48.954;9.474;2023-09-12T07:33:10;13.77;;;10.67;;
846;SDS011;410;48.954;9.474;2023-09-12T07:35:13;16.73;;;10.73;;
846;SDS011;410;48.954;9.474;2023-09-12T07:37:16;14.47;;;9.90;;
846;SDS011;410;48.954;9.474;2023-09-12T07:39:19;12.53;;;9.30;;
846;SDS011;410;48.954;9.474;2023-09-12T07:41:23;15.97;;;9.70;;
846;SDS011;410;48.954;9.474;2023-09-12T07:43:26;15.07;;;9.40;;
846;SDS011;410;48.954;9.474;2023-09-12T07:45:31;11.53;;;9.10;;
846;SDS011;410;48.954;9.474;2023-09-12T07:47:39;14.30;;;9.20;;
846;SDS011;410;48.954;9.474;2023-09-12T07:49:42;12.60;;;9.50;;
846;SDS011;410;48.954;9.474;2023-09-12T07:51:45;15.10;;;10.20;;
846;SDS011;410;48.954;9.474;2023-09-12T07:53:49;12.57;;;9.03;;
846;SDS011;410;48.954;9.474;2023-09-12T07:55:52;10.47;;;8.80;;
846;SDS011;410;48.954;9.474;2023-09-12T07:57:56;12.07;;;8.63;;
846;SDS011;410;48.954;9.474;2023-09-12T07:59:58;10.10;;;8.60;;
846;SDS011;410;48.954;9.474;2023-09-12T08:02:03;10.63;;;8.37;;
846;SDS011;410;48.954;9.474;2023-09-12T08:04:07;9.50;;;8.23;;
846;SDS011;410;48.954;9.474;2023-09-12T08:06:10;10.33;;;9.00;;
846;SDS011;410;48.954;9.474;2023-09-12T08:08:14;10.40;;;8.37;;
846;SDS011;410;48.954;9.474;2023-09-12T08:10:18;13.50;;;9.23;;
846;SDS011;410;48.954;9.474;2023-09-12T08:12:21;10.23;;;9.13;;
846;SDS011;410;48.954;9.474;2023-09-12T08:14:25;12.47;;;9.50;;
846;SDS011;410;48.954;9.474;2023-09-12T08:16:28;10.03;;;8.20;;
846;SDS011;410;48.954;9.474;2023-09-12T08:18:34;11.17;;;8.40;;
846;SDS011;410;48.954;9.474;2023-09-12T08:20:37;11.30;;;8.40;;
846;SDS011;410;48.954;9.474;2023-09-12T08:22:40;9.90;;;8.90;;
846;SDS011;410;48.954;9.474;2023-09-12T08:24:44;10.80;;;8.20;;
846;SDS011;410;48.954;9.474;2023-09-12T08:26:47;8.87;;;7.97;;
846;SDS011;410;48.954;9.474;2023-09-12T08:28:51;12.90;;;9.70;;
846;SDS011;410;48.954;9.474;2023-09-12T08:30:54;10.23;;;9.07;;
846;SDS011;410;48.954;9.474;2023-09-12T08:32:57;11.53;;;9.60;;
846;SDS011;410;48.954;9.474;2023-09-12T08:35:01;13.70;;;10.40;;
846;SDS011;410;48.954;9.474;2023-09-12T08:37:05;12.50;;;8.10;;
846;SDS011;410;48.954;9.474;2023-09-12T08:39:11;9.70;;;8.70;;
846;SDS011;410;48.954;9.474;2023-09-12T08:41:17;14.43;;;9.23;;
846;SDS011;410;48.954;9.474;2023-09-12T08:43:20;15.93;;;11.00;;
846;SDS011;410;48.954;9.474;2023-09-12T08:45:23;9.97;;;8.40;;
846;SDS011;410;48.954;9.474;2023-09-12T08:47:27;10.63;;;9.53;;
846;SDS011;410;48.954;9.474;2023-09-12T08:49:30;13.43;;;9.70;;
846;SDS011;410;48.954;9.474;2023-09-12T08:51:36;11.10;;;9.20;;
846;SDS011;410;48.954;9.474;2023-09-12T08:53:41;10.60;;;9.43;;
846;SDS011;410;48.954;9.474;2023-09-12T08:55:45;13.10;;;10.00;;
846;SDS011;410;48.954;9.474;2023-09-12T08:57:50;12.50;;;9.67;;
846;SDS011;410;48.954;9.474;2023-09-12T08:59:53;11.03;;;9.93;;
846;SDS011;410;48.954;9.474;2023-09-12T09:01:57;11.50;;;9.50;;
846;SDS011;410;48.954;9.474;2023-09-12T09:04:01;15.00;;;9.50;;
846;SDS011;410;48.954;9.474;2023-09-12T09:06:05;11.80;;;10.40;;
846;SDS011;410;48.954;9.474;2023-09-12T09:08:10;10.87;;;9.77;;
846;SDS011;410;48.954;9.474;2023-09-12T09:10:15;11.47;;;9.77;;
846;SDS011;410;48.954;9.474;2023-09-12T09:12:26;11.60;;;10.07;;
846;SDS011;410;48.954;9.474;2023-09-12T09:14:30;12.20;;;10.20;;
846;SDS011;410;48.954;9.474;2023-09-12T09:16:33;13.63;;;10.90;;
846;SDS011;410;48.954;9.474;2023-09-12T09:18:49;12.17;;;9.57;;
846;SDS011;410;48.954;9.474;2023-09-12T09:20:52;12.40;;;10.10;;
846;SDS011;410;48.954;9.474;2023-09-12T09:27:09;12.03;;;10.57;;
846;SDS011;410;48.954;9.474;2023-09-12T09:33:32;14.00;;;10.63;;
846;SDS011;410;48.954;9.474;2023-09-12T09:35:38;12.43;;;10.27;;
846;SDS011;410;48.954;9.474;2023-09-12T09:37:42;10.50;;;9.40;;
846;SDS011;410;48.954;9.474;2023-09-12T09:39:45;11.03;;;9.93;;
846;SDS011;410;48.954;9.474;2023-09-12T09:41:54;12.23;;;10.37;;
846;SDS011;410;48.954;9.474;2023-09-12T09:43:59;11.10;;;10.00;;
846;SDS011;410;48.954;9.474;2023-09-12T09:46:03;11.10;;;9.97;;
846;SDS011;410;48.954;9.474;2023-09-12T09:48:06;12.40;;;10.33;;
846;SDS011;410;48.954;9.474;2023-09-12T09:50:13;11.37;;;10.17;;
846;SDS011;410;48.954;9.474;2023-09-12T09:52:17;11.60;;;10.40;;
846;SDS011;410;48.954;9.474;2023-09-12T09:54:28;11.53;;;10.33;;
846;SDS011;410;48.954;9.474;2023-09-12T09:56:31;13.13;;;11.20;;
846;SDS011;410;48.954;9.474;2023-09-12T09:58:34;11.20;;;10.10;;
846;SDS011;410;48.954;9.474;2023-09-12T10:00:39;11.88;;;10.68;;
846;SDS011;410;48.954;9.474;2023-09-12T10:02:42;13.97;;;10.17;;
846;SDS011;410;48.954;9.474;2023-09-12T10:04:46;11.17;;;9.87;;
846;SDS011;410;48.954;9.474;2023-09-12T10:07:01;12.20;;;10.30;;
846;SDS011;410;48.954;9.474;2023-09-12T10:09:05;11.10;;;10.00;;
846;SDS011;410;48.954;9.474;2023-09-12T10:11:09;10.50;;;9.50;;
846;SDS011;410;48.954;9.474;2023-09-12T10:13:12;11.80;;;10.60;;
846;SDS011;410;48.954;9.474;2023-09-12T10:15:18;13.70;;;12.40;;
846;SDS011;410;48.954;9.474;2023-09-12T10:17:23;11.43;;;10.33;;
846;SDS011;410;48.954;9.474;2023-09-12T10:19:31;14.53;;;10.73;;
846;SDS011;410;48.954;9.474;2023-09-12T10:21:37;12.20;;;10.93;;
846;SDS011;410;48.954;9.474;2023-09-12T10:23:45;14.57;;;11.10;;
846;SDS011;410;48.954;9.474;2023-09-12T10:25:52;11.97;;;9.40;;
846;SDS011;410;48.954;9.474;2023-09-12T10:27:56;11.33;;;10.20;;
846;SDS011;410;48.954;9.474;2023-09-12T10:30:00;11.23;;;10.23;;
846;SDS011;410;48.954;9.474;2023-09-12T10:32:06;12.37;;;9.80;;
846;SDS011;410;48.954;9.474;2023-09-12T10:34:12;12.00;;;10.80;;
846;SDS011;410;48.954;9.474;2023-09-12T10:36:36;10.90;;;9.80;;
846;SDS011;410;48.954;9.474;2023-09-12T10:38:42;11.63;;;10.40;;
846;SDS011;410;48.954;9.474;2023-09-12T10:40:46;12.50;;;10.07;;
846;SDS011;410;48.954;9.474;2023-09-12T10:42:50;10.40;;;9.50;;
846;SDS011;410;48.954;9.474;2023-09-12T10:44:54;12.40;;;9.93;;
846;SDS011;410;48.954;9.474;2023-09-12T10:46:58;13.40;;;10.07;;
846;SDS011;410;48.954;9.474;2023-09-12T10:49:01;11.10;;;10.03;;
846;SDS011;410;48.954;9.474;2023-09-12T10:51:07;10.57;;;9.57;;
846;SDS011;410;48.954;9.474;2023-09-12T10:53:11;11.67;;;10.47;;
846;SDS011;410;48.954;9.474;2023-09-12T10:55:15;11.47;;;10.30;;
846;SDS011;410;48.954;9.474;2023-09-12T10:57:19;11.03;;;9.47;;
846;SDS011;410;48.954;9.474;2023-09-12T10:59:25;14.50;;;10.23;;
846;SDS011;410;48.954;9.474;2023-09-12T11:01:33;16.20;;;13.23;;
846;SDS011;410;48.954;9.474;2023-09-12T11:03:36;10.80;;;9.80;;
846;SDS011;410;48.954;9.474;2023-09-12T11:05:50;11.63;;;10.43;;
846;SDS011;410;48.954;9.474;2023-09-12T11:07:59;12.57;;;9.57;;
846;SDS011;410;48.954;9.474;2023-09-12T11:10:19;11.43;;;8.77;;
846;SDS011;410;48.954;9.474;2023-09-12T11:12:33;12.30;;;9.20;;
846;SDS011;410;48.954;9.474;2023-09-12T11:14:39;11.33;;;8.53;;
846;SDS011;410;48.954;9.474;2023-09-12T11:17:19;10.30;;;8.70;;
846;SDS011;410;48.954;9.474;2023-09-12T11:19:24;9.53;;;8.60;;
846;SDS011;410;48.954;9.474;2023-09-12T11:21:31;11.63;;;9.07;;
846;SDS011;410;48.954;9.474;2023-09-12T11:23:35;10.13;;;9.00;;
846;SDS011;410;48.954;9.474;2023-09-12T11:25:41;10.60;;;9.10;;
846;SDS011;410;48.954;9.474;2023-09-12T11:28:01;9.87;;;8.87;;
846;SDS011;410;48.954;9.474;2023-09-12T11:30:07;12.27;;;9.00;;
846;SDS011;410;48.954;9.474;2023-09-12T11:32:11;10.97;;;9.87;;
846;SDS011;410;48.954;9.474;2023-09-12T11:34:28;11.67;;;9.03;;
846;SDS011;410;48.954;9.474;2023-09-12T11:36:37;10.70;;;9.57;;
846;SDS011;410;48.954;9.474;2023-09-12T11:38:41;12.00;;;9.77;;
846;SDS011;410;48.954;9.474;2023-09-12T11:40:44;11.63;;;9.47;;
846;SDS011;410;48.954;9.474;2023-09-12T11:42:48;12.83;;;8.97;;
846;SDS011;410;48.954;9.474;2023-09-12T11:44:52;9.93;;;8.87;;
846;SDS011;410;48.954;9.474;2023-09-12T11:46:57;10.43;;;9.33;;
846;SDS011;410;48.954;9.474;2023-09-12T11:49:04;9.13;;;8.23;;
846;SDS011;410;48.954;9.474;2023-09-12T11:51:08;9.83;;;8.93;;
846;SDS011;410;48.954;9.474;2023-09-12T11:53:11;10.20;;;9.20;;
846;SDS011;410;48.954;9.474;2023-09-12T11:55:21;10.33;;;7.60;;
846;SDS011;410;48.954;9.474;2023-09-12T11:57:25;9.60;;;8.60;;
846;SDS011;410;48.954;9.474;2023-09-12T11:59:28;8.83;;;7.90;;
846;SDS011;410;48.954;9.474;2023-09-12T12:01:31;9.97;;;8.47;;
846;SDS011;410;48.954;9.474;2023-09-12T12:03:36;10.90;;;8.73;;
846;SDS011;410;48.954;9.474;2023-09-12T12:05:40;10.80;;;9.33;;
846;SDS011;410;48.954;9.474;2023-09-12T12:07:43;11.40;;;8.60;;
846;SDS011;410;48.954;9.474;2023-09-12T12:09:49;10.17;;;9.17;;
846;SDS011;410;48.954;9.474;2023-09-12T12:11:53;9.70;;;8.80;;
846;SDS011;410;48.954;9.474;2023-09-12T12:13:57;9.87;;;8.73;;
846;SDS011;410;48.954;9.474;2023-09-12T12:15:59;9.77;;;8.77;;
846;SDS011;410;48.954;9.474;2023-09-12T12:18:02;9.53;;;8.40;;
846;SDS011;410;48.954;9.474;2023-09-12T12:20:08;12.40;;;8.83;;
846;SDS011;410;48.954;9.474;2023-09-12T12:22:13;9.07;;;7.83;;
846;SDS011;410;48.954;9.474;2023-09-12T12:24:16;8.27;;;7.50;;
846;SDS011;410;48.954;9.474;2023-09-12T12:26:19;8.60;;;7.60;;
846;SDS011;410;48.954;9.474;2023-09-12T12:28:21;9.43;;;8.33;;
846;SDS011;410;48.954;9.474;2023-09-12T12:30:24;21.63;;;10.73;;
846;SDS011;410;48.954;9.474;2023-09-12T12:32:27;9.13;;;8.03;;
846;SDS011;410;48.954;9.474;2023-09-12T12:34:30;11.00;;;8.60;;
846;SDS011;410;48.954;9.474;2023-09-12T12:36:55;9.23;;;8.37;;
846;SDS011;410;48.954;9.474;2023-09-12T12:39:00;9.33;;;8.43;;
846;SDS011;410;48.954;9.474;2023-09-12T12:41:03;9.03;;;8.20;;
846;SDS011;410;48.954;9.474;2023-09-12T12:43:05;9.93;;;7.40;;
846;SDS011;410;48.954;9.474;2023-09-12T12:45:19;9.07;;;8.10;;
846;SDS011;410;48.954;9.474;2023-09-12T12:47:23;9.30;;;8.00;;
846;SDS011;410;48.954;9.474;2023-09-12T12:49:27;8.07;;;7.33;;
846;SDS011;410;48.954;9.474;2023-09-12T12:51:31;8.30;;;7.50;;
846;SDS011;410;48.954;9.474;2023-09-12T12:53:38;8.37;;;7.57;;
846;SDS011;410;48.954;9.474;2023-09-12T12:55:44;9.83;;;8.43;;
846;SDS011;410;48.954;9.474;2023-09-12T12:57:48;8.60;;;7.63;;
846;SDS011;410;48.954;9.474;2023-09-12T12:59:51;7.70;;;6.93;;
846;SDS011;410;48.954;9.474;2023-09-12T13:01:55;9.03;;;8.23;;
846;SDS011;410;48.954;9.474;2023-09-12T13:03:58;8.30;;;7.60;;
846;SDS011;410;48.954;9.474;2023-09-12T13:06:01;8.80;;;7.90;;
846;SDS011;410;48.954;9.474;2023-09-12T13:08:05;8.40;;;7.70;;
846;SDS011;410;48.954;9.474;2023-09-12T13:10:09;9.60;;;8.13;;
846;SDS011;410;48.954;9.474;2023-09-12T13:12:13;8.67;;;7.97;;
846;SDS011;410;48.954;9.474;2023-09-12T13:14:17;9.47;;;7.27;;
846;SDS011;410;48.954;9.474;2023-09-12T13:16:21;8.73;;;7.70;;
846;SDS011;410;48.954;9.474;2023-09-12T13:18:24;8.90;;;8.00;;
846;SDS011;410;48.954;9.474;2023-09-12T13:20:28;8.37;;;7.00;;
846;SDS011;410;48.954;9.474;2023-09-12T13:22:31;11.10;;;7.90;;
846;SDS011;410;48.954;9.474;2023-09-12T13:24:35;8.50;;;7.70;;
846;SDS011;410;48.954;9.474;2023-09-12T13:26:40;8.67;;;7.87;;